Sm Seahawk — 3FLV3 — position and weather

sailwx.info

Track history (hours):
 
Tides and Currents Weather Stations Pressure Air Temp Water Temp Dewpoint Dewpoint Depression Visibility Wind Speed Wind Dir Waves Ship Positions

Sm Seahawk

Last reported at 2017-Aug-17 09:42 UTC. Time now 2017-Aug-18 10:52 UTC.
Position N 23°18' W 113°29'.

Length 295 m; draft 10.2 m.

Type: Tanker. MMSI: 355658000.

Date/timePositionNaut miles runAvg speedWind from/ knotsBaromVisibWave heightAir tempDewpointWater temp
2017-Aug-17 09:42N 23°18' W 113°29'1117.7
2017-Aug-17 09:05N 23°26' W 113°37'117.5
2017-Aug-17 09:00N 23°27' W 113°38'917.5
2017-Aug-17 08:31N 23°32' W 113°45'917.8
2017-Aug-17 08:00N 23°38' W 113°53'918.1
2017-Aug-17 07:30N 23°44' W 113°60'918.3
2017-Aug-17 07:00N 23°51' W 114°07'1018.6
2017-Aug-17 06:28N 23°57' W 114°15'1218.8
2017-Aug-17 05:49N 24°06' W 114°25'619.0
2017-Aug-17 05:31N 24°09' W 114°30'918.8
2017-Aug-17 05:00N 24°15' W 114°38'5 8.6
2017-Aug-17 04:28N 24°19' W 114°41'1018.8
2017-Aug-17 03:58N 24°26' W 114°49'818.5
2017-Aug-17 03:31N 24°31' W 114°56'1017.9
2017-Aug-17 02:56N 24°38' W 115°04'818.3
2017-Aug-17 02:30N 24°43' W 115°11'917.8
2017-Aug-17 01:59N 24°49' W 115°18'817.3
2017-Aug-17 01:30N 24°55' W 115°25'917.3
2017-Aug-17 01:00N 25°01' W 115°32'917.5
2017-Aug-17 00:31N 25°07' W 115°39'917.3
2017-Aug-17 00:00N 25°12' W 115°46'1017.5
2017-Aug-16 23:27N 25°19' W 115°54'817.5
2017-Aug-16 23:00N 25°24' W 116°01'917.4
2017-Aug-16 22:31N 25°30' W 116°08'917.5
2017-Aug-16 22:00N 25°36' W 116°15'817.3
2017-Aug-16 21:31N 25°41' W 116°22'917.4
2017-Aug-16 21:00N 25°47' W 116°29'917.8
2017-Aug-16 20:31N 25°53' W 116°37'1317.8
2017-Aug-16 19:46N 26°02' W 116°48'918.0
2017-Aug-16 19:15N 26°08' W 116°55'417.9
2017-Aug-16 19:00N 26°11' W 116°59'1418.0
2017-Aug-16 18:13N 26°20' W 117°11'418.2
2017-Aug-16 18:01N 26°23' W 117°14'918.4
2017-Aug-16 17:30N 26°29' W 117°22'2418.2
2017-Aug-16 16:11N 26°45' W 117°43'317.9
2017-Aug-16 16:00N 26°47' W 117°45'917.9
2017-Aug-16 15:29N 26°53' W 117°53'17417.8
2017-Aug-16 05:45N 28°46' W 120°22'818.0
2017-Aug-16 05:17N 28°51' W 120°29'918.0
2017-Aug-16 04:48N 28°57' W 120°37'1017.8
2017-Aug-16 04:13N 29°04' W 120°46'417.9
2017-Aug-16 04:00N 29°06' W 120°50'918.0
2017-Aug-16 03:31N 29°12' W 120°57'1117.8
2017-Aug-16 02:54N 29°19' W 121°07'717.9
2017-Aug-16 02:30N 29°23' W 121°13'917.9
2017-Aug-16 02:00N 29°29' W 121°21'918.0
2017-Aug-16 01:30N 29°35' W 121°29'1018.1
2017-Aug-16 00:56N 29°41' W 121°38'818.2
2017-Aug-16 00:30N 29°46' W 121°45'918.1
2017-Aug-16 00:00N 29°52' W 121°53'1118.1
2017-Aug-15 23:24N 29°59' W 122°03'1018.0
2017-Aug-15 22:52N 30°05' W 122°11'818.4
2017-Aug-15 22:27N 30°10' W 122°19'818.2
2017-Aug-15 22:00N 30°15' W 122°26'1218.2
2017-Aug-15 21:21N 30°22' W 122°37'618.3
2017-Aug-15 21:01N 30°26' W 122°42'918.2
2017-Aug-15 20:31N 30°32' W 122°51'918.4
2017-Aug-15 20:01N 30°38' W 122°59'918.5
2017-Aug-15 19:30N 30°43' W 123°07'2518.1
2017-Aug-15 18:07N 30°59' W 123°30'217.9
2017-Aug-15 18:01N 31°00' W 123°32'1117.8
2017-Aug-15 17:24N 31°07' W 123°42'3117.9
2017-Aug-15 15:41N 31°25' W 124°11'2517.7
2017-Aug-15 14:15N 31°42' W 124°33'  
Track history (hours):
 
Tides and Currents Weather Stations Pressure Air Temp Water Temp Dewpoint Dewpoint Depression Visibility Wind Speed Wind Dir Waves Ship Positions

Sm Seahawk

Last reported at 2017-Aug-17 09:42 UTC. Time now 2017-Aug-18 10:52 UTC.
Position N 23°18' W 113°29'.

Length 295 m; draft 10.2 m.

Type: Tanker. MMSI: 355658000.

Date/timePositionNaut miles runAvg speedWind from/ knotsBaromVisibWave heightAir tempDewpointWater temp
2017-Aug-17 09:42N 23°18' W 113°29'1117.7
2017-Aug-17 09:05N 23°26' W 113°37'117.5
2017-Aug-17 09:00N 23°27' W 113°38'917.5
2017-Aug-17 08:31N 23°32' W 113°45'917.8
2017-Aug-17 08:00N 23°38' W 113°53'918.1
2017-Aug-17 07:30N 23°44' W 113°60'918.3
2017-Aug-17 07:00N 23°51' W 114°07'1018.6
2017-Aug-17 06:28N 23°57' W 114°15'1218.8
2017-Aug-17 05:49N 24°06' W 114°25'619.0
2017-Aug-17 05:31N 24°09' W 114°30'918.8
2017-Aug-17 05:00N 24°15' W 114°38'5 8.6
2017-Aug-17 04:28N 24°19' W 114°41'1018.8
2017-Aug-17 03:58N 24°26' W 114°49'818.5
2017-Aug-17 03:31N 24°31' W 114°56'1017.9
2017-Aug-17 02:56N 24°38' W 115°04'818.3
2017-Aug-17 02:30N 24°43' W 115°11'917.8
2017-Aug-17 01:59N 24°49' W 115°18'817.3
2017-Aug-17 01:30N 24°55' W 115°25'917.3
2017-Aug-17 01:00N 25°01' W 115°32'917.5
2017-Aug-17 00:31N 25°07' W 115°39'917.3
2017-Aug-17 00:00N 25°12' W 115°46'1017.5
2017-Aug-16 23:27N 25°19' W 115°54'817.5
2017-Aug-16 23:00N 25°24' W 116°01'917.4
2017-Aug-16 22:31N 25°30' W 116°08'917.5
2017-Aug-16 22:00N 25°36' W 116°15'817.3
2017-Aug-16 21:31N 25°41' W 116°22'917.4
2017-Aug-16 21:00N 25°47' W 116°29'917.8
2017-Aug-16 20:31N 25°53' W 116°37'1317.8
2017-Aug-16 19:46N 26°02' W 116°48'918.0
2017-Aug-16 19:15N 26°08' W 116°55'417.9
2017-Aug-16 19:00N 26°11' W 116°59'1418.0
2017-Aug-16 18:13N 26°20' W 117°11'418.2
2017-Aug-16 18:01N 26°23' W 117°14'918.4
2017-Aug-16 17:30N 26°29' W 117°22'2418.2
2017-Aug-16 16:11N 26°45' W 117°43'317.9
2017-Aug-16 16:00N 26°47' W 117°45'917.9
2017-Aug-16 15:29N 26°53' W 117°53'17417.8
2017-Aug-16 05:45N 28°46' W 120°22'818.0
2017-Aug-16 05:17N 28°51' W 120°29'918.0
2017-Aug-16 04:48N 28°57' W 120°37'1017.8
2017-Aug-16 04:13N 29°04' W 120°46'417.9
2017-Aug-16 04:00N 29°06' W 120°50'918.0
2017-Aug-16 03:31N 29°12' W 120°57'1117.8
2017-Aug-16 02:54N 29°19' W 121°07'717.9
2017-Aug-16 02:30N 29°23' W 121°13'917.9
2017-Aug-16 02:00N 29°29' W 121°21'918.0
2017-Aug-16 01:30N 29°35' W 121°29'1018.1
2017-Aug-16 00:56N 29°41' W 121°38'818.2
2017-Aug-16 00:30N 29°46' W 121°45'918.1
2017-Aug-16 00:00N 29°52' W 121°53'1118.1
2017-Aug-15 23:24N 29°59' W 122°03'1018.0
2017-Aug-15 22:52N 30°05' W 122°11'818.4
2017-Aug-15 22:27N 30°10' W 122°19'818.2
2017-Aug-15 22:00N 30°15' W 122°26'1218.2
2017-Aug-15 21:21N 30°22' W 122°37'618.3
2017-Aug-15 21:01N 30°26' W 122°42'918.2
2017-Aug-15 20:31N 30°32' W 122°51'918.4
2017-Aug-15 20:01N 30°38' W 122°59'918.5
2017-Aug-15 19:30N 30°43' W 123°07'2518.1
2017-Aug-15 18:07N 30°59' W 123°30'217.9
2017-Aug-15 18:01N 31°00' W 123°32'1117.8
2017-Aug-15 17:24N 31°07' W 123°42'3117.9
2017-Aug-15 15:41N 31°25' W 124°11'2517.7
2017-Aug-15 14:15N 31°42' W 124°33'  

Dump ship's entire track history